sensor_id;sensor_type;location;lat;lon;timestamp;temperature;humidity
22319;DHT22;11327;52.334;9.506;2024-01-30T00:03:01;6.00;99.90
22319;DHT22;11327;52.334;9.506;2024-01-30T00:06:21;6.20;99.90
22319;DHT22;11327;52.334;9.506;2024-01-30T00:09:42;6.60;99.90
22319;DHT22;11327;52.334;9.506;2024-01-30T00:13:03;6.80;99.90
22319;DHT22;11327;52.334;9.506;2024-01-30T00:16:24;6.70;99.90
22319;DHT22;11327;52.334;9.506;2024-01-30T00:19:45;6.60;99.90
22319;DHT22;11327;52.334;9.506;2024-01-30T00:23:05;6.70;99.90
22319;DHT22;11327;52.334;9.506;2024-01-30T00:26:26;6.70;99.90
22319;DHT22;11327;52.334;9.506;2024-01-30T00:29:46;6.80;99.90
22319;DHT22;11327;52.334;9.506;2024-01-30T00:33:07;6.80;99.90
22319;DHT22;11327;52.334;9.506;2024-01-30T00:36:28;6.80;99.90
22319;DHT22;11327;52.334;9.506;2024-01-30T00:39:50;6.80;99.90
22319;DHT22;11327;52.334;9.506;2024-01-30T00:43:11;6.90;99.90
22319;DHT22;11327;52.334;9.506;2024-01-30T00:46:31;7.10;99.90
22319;DHT22;11327;52.334;9.506;2024-01-30T00:49:52;7.20;99.90
22319;DHT22;11327;52.334;9.506;2024-01-30T00:53:13;7.30;99.90
22319;DHT22;11327;52.334;9.506;2024-01-30T00:56:33;7.20;99.90
22319;DHT22;11327;52.334;9.506;2024-01-30T00:59:54;7.30;99.90
22319;DHT22;11327;52.334;9.506;2024-01-30T01:03:15;7.30;99.90
22319;DHT22;11327;52.334;9.506;2024-01-30T01:06:35;7.40;99.90
22319;DHT22;11327;52.334;9.506;2024-01-30T01:09:56;7.50;99.90
22319;DHT22;11327;52.334;9.506;2024-01-30T01:13:16;7.50;99.90
22319;DHT22;11327;52.334;9.506;2024-01-30T01:16:37;7.40;99.90
22319;DHT22;11327;52.334;9.506;2024-01-30T01:19:57;7.40;99.90
22319;DHT22;11327;52.334;9.506;2024-01-30T01:23:18;7.20;99.90
22319;DHT22;11327;52.334;9.506;2024-01-30T01:26:39;7.00;99.90
22319;DHT22;11327;52.334;9.506;2024-01-30T01:30:00;6.90;99.90
22319;DHT22;11327;52.334;9.506;2024-01-30T01:33:20;6.70;99.90
22319;DHT22;11327;52.334;9.506;2024-01-30T01:36:41;6.60;99.90
22319;DHT22;11327;52.334;9.506;2024-01-30T01:40:02;6.60;99.90
22319;DHT22;11327;52.334;9.506;2024-01-30T01:43:23;6.40;99.90
22319;DHT22;11327;52.334;9.506;2024-01-30T01:46:43;6.40;99.90
22319;DHT22;11327;52.334;9.506;2024-01-30T01:50:04;6.40;99.90
22319;DHT22;11327;52.334;9.506;2024-01-30T01:53:25;6.40;99.90
22319;DHT22;11327;52.334;9.506;2024-01-30T01:56:46;6.30;99.90
22319;DHT22;11327;52.334;9.506;2024-01-30T02:00:07;6.30;99.90
22319;DHT22;11327;52.334;9.506;2024-01-30T02:03:28;6.20;99.90
22319;DHT22;11327;52.334;9.506;2024-01-30T02:06:48;6.20;99.90
22319;DHT22;11327;52.334;9.506;2024-01-30T02:10:10;6.10;99.90
22319;DHT22;11327;52.334;9.506;2024-01-30T02:13:30;6.10;99.90
22319;DHT22;11327;52.334;9.506;2024-01-30T02:16:51;6.00;99.90
22319;DHT22;11327;52.334;9.506;2024-01-30T02:20:11;5.90;99.90
22319;DHT22;11327;52.334;9.506;2024-01-30T02:23:33;5.90;99.90
22319;DHT22;11327;52.334;9.506;2024-01-30T02:26:55;6.00;99.90
22319;DHT22;11327;52.334;9.506;2024-01-30T02:30:16;5.90;99.90
22319;DHT22;11327;52.334;9.506;2024-01-30T02:33:36;5.90;99.90
22319;DHT22;11327;52.334;9.506;2024-01-30T02:36:57;5.90;99.90
22319;DHT22;11327;52.334;9.506;2024-01-30T02:40:17;5.90;99.90
22319;DHT22;11327;52.334;9.506;2024-01-30T02:43:38;6.00;99.90
22319;DHT22;11327;52.334;9.506;2024-01-30T02:46:59;6.10;99.90
22319;DHT22;11327;52.334;9.506;2024-01-30T02:50:19;6.30;99.90
22319;DHT22;11327;52.334;9.506;2024-01-30T02:53:40;6.60;99.90
22319;DHT22;11327;52.334;9.506;2024-01-30T02:57:00;6.80;99.90
22319;DHT22;11327;52.334;9.506;2024-01-30T03:00:21;7.00;99.90
22319;DHT22;11327;52.334;9.506;2024-01-30T03:03:41;7.10;99.90
22319;DHT22;11327;52.334;9.506;2024-01-30T03:07:03;7.20;99.90
22319;DHT22;11327;52.334;9.506;2024-01-30T03:10:24;7.20;99.90
22319;DHT22;11327;52.334;9.506;2024-01-30T03:13:44;7.30;99.90
22319;DHT22;11327;52.334;9.506;2024-01-30T03:17:05;7.30;99.90
22319;DHT22;11327;52.334;9.506;2024-01-30T03:20:26;7.30;99.90
22319;DHT22;11327;52.334;9.506;2024-01-30T03:23:46;7.30;99.90
22319;DHT22;11327;52.334;9.506;2024-01-30T03:27:07;7.20;99.90
22319;DHT22;11327;52.334;9.506;2024-01-30T03:30:28;7.00;99.90
22319;DHT22;11327;52.334;9.506;2024-01-30T03:33:48;6.70;99.90
22319;DHT22;11327;52.334;9.506;2024-01-30T03:37:09;6.50;99.90
22319;DHT22;11327;52.334;9.506;2024-01-30T03:40:29;6.30;99.90
22319;DHT22;11327;52.334;9.506;2024-01-30T03:43:50;6.30;99.90
22319;DHT22;11327;52.334;9.506;2024-01-30T03:47:11;6.20;99.90
22319;DHT22;11327;52.334;9.506;2024-01-30T03:50:31;6.10;99.90
22319;DHT22;11327;52.334;9.506;2024-01-30T03:53:52;6.00;99.90
22319;DHT22;11327;52.334;9.506;2024-01-30T03:57:13;6.00;99.90
22319;DHT22;11327;52.334;9.506;2024-01-30T04:00:33;6.00;99.90
22319;DHT22;11327;52.334;9.506;2024-01-30T04:03:54;5.90;99.90
22319;DHT22;11327;52.334;9.506;2024-01-30T04:07:14;5.80;99.90
22319;DHT22;11327;52.334;9.506;2024-01-30T04:10:35;5.70;99.90
22319;DHT22;11327;52.334;9.506;2024-01-30T04:13:55;5.60;99.90
22319;DHT22;11327;52.334;9.506;2024-01-30T04:17:16;7.20;99.90
22319;DHT22;11327;52.334;9.506;2024-01-30T04:20:37;5.60;99.90
22319;DHT22;11327;52.334;9.506;2024-01-30T04:23:57;5.60;99.90
22319;DHT22;11327;52.334;9.506;2024-01-30T04:27:18;5.60;99.90
22319;DHT22;11327;52.334;9.506;2024-01-30T04:30:39;5.60;99.90
22319;DHT22;11327;52.334;9.506;2024-01-30T04:33:59;5.50;99.90
22319;DHT22;11327;52.334;9.506;2024-01-30T04:37:20;5.60;99.90
22319;DHT22;11327;52.334;9.506;2024-01-30T04:40:40;5.50;99.90
22319;DHT22;11327;52.334;9.506;2024-01-30T04:44:01;5.50;99.90
22319;DHT22;11327;52.334;9.506;2024-01-30T04:47:21;5.60;99.90
22319;DHT22;11327;52.334;9.506;2024-01-30T04:50:42;5.90;99.90
22319;DHT22;11327;52.334;9.506;2024-01-30T04:54:03;6.10;99.90
22319;DHT22;11327;52.334;9.506;2024-01-30T04:57:23;6.20;99.90
22319;DHT22;11327;52.334;9.506;2024-01-30T05:00:44;6.30;99.90
22319;DHT22;11327;52.334;9.506;2024-01-30T05:04:09;6.30;99.90
22319;DHT22;11327;52.334;9.506;2024-01-30T05:07:29;6.40;99.90
22319;DHT22;11327;52.334;9.506;2024-01-30T05:10:50;6.40;99.90
22319;DHT22;11327;52.334;9.506;2024-01-30T05:14:11;6.40;99.90
22319;DHT22;11327;52.334;9.506;2024-01-30T05:17:32;6.20;99.90
22319;DHT22;11327;52.334;9.506;2024-01-30T05:20:53;6.00;99.90
22319;DHT22;11327;52.334;9.506;2024-01-30T05:24:14;5.90;99.90
22319;DHT22;11327;52.334;9.506;2024-01-30T05:27:34;5.80;99.90
22319;DHT22;11327;52.334;9.506;2024-01-30T05:30:55;5.80;99.90
22319;DHT22;11327;52.334;9.506;2024-01-30T05:34:16;5.70;99.90
22319;DHT22;11327;52.334;9.506;2024-01-30T05:37:37;5.70;99.90
22319;DHT22;11327;52.334;9.506;2024-01-30T05:40:57;5.70;99.90
22319;DHT22;11327;52.334;9.506;2024-01-30T05:44:18;5.60;99.90
22319;DHT22;11327;52.334;9.506;2024-01-30T05:47:39;5.50;99.90
22319;DHT22;11327;52.334;9.506;2024-01-30T05:51:00;5.40;99.90
22319;DHT22;11327;52.334;9.506;2024-01-30T05:54:20;5.40;99.90
22319;DHT22;11327;52.334;9.506;2024-01-30T05:57:41;5.40;99.90
22319;DHT22;11327;52.334;9.506;2024-01-30T06:01:02;5.40;99.90
22319;DHT22;11327;52.334;9.506;2024-01-30T06:04:23;5.40;99.90
22319;DHT22;11327;52.334;9.506;2024-01-30T06:07:44;5.30;99.90
22319;DHT22;11327;52.334;9.506;2024-01-30T06:11:04;5.30;99.90
22319;DHT22;11327;52.334;9.506;2024-01-30T06:14:25;5.30;99.90
22319;DHT22;11327;52.334;9.506;2024-01-30T06:17:45;5.30;99.90
22319;DHT22;11327;52.334;9.506;2024-01-30T06:21:06;5.20;99.90
22319;DHT22;11327;52.334;9.506;2024-01-30T06:24:26;5.20;99.90
22319;DHT22;11327;52.334;9.506;2024-01-30T06:27:48;5.30;99.90
22319;DHT22;11327;52.334;9.506;2024-01-30T06:31:09;5.30;99.90
22319;DHT22;11327;52.334;9.506;2024-01-30T06:34:29;5.30;99.90
22319;DHT22;11327;52.334;9.506;2024-01-30T06:37:50;5.30;99.90
22319;DHT22;11327;52.334;9.506;2024-01-30T06:41:10;5.30;99.90
22319;DHT22;11327;52.334;9.506;2024-01-30T06:44:31;5.40;99.90
22319;DHT22;11327;52.334;9.506;2024-01-30T06:47:52;5.60;99.90
22319;DHT22;11327;52.334;9.506;2024-01-30T06:51:12;5.70;99.90
22319;DHT22;11327;52.334;9.506;2024-01-30T06:54:33;5.70;99.90
22319;DHT22;11327;52.334;9.506;2024-01-30T06:57:54;5.80;99.90
22319;DHT22;11327;52.334;9.506;2024-01-30T07:01:15;5.80;99.90
22319;DHT22;11327;52.334;9.506;2024-01-30T07:04:36;5.80;99.90
22319;DHT22;11327;52.334;9.506;2024-01-30T07:07:58;5.90;99.90
22319;DHT22;11327;52.334;9.506;2024-01-30T07:11:19;5.90;99.90
22319;DHT22;11327;52.334;9.506;2024-01-30T07:14:42;5.90;99.90
22319;DHT22;11327;52.334;9.506;2024-01-30T07:18:02;5.80;99.90
22319;DHT22;11327;52.334;9.506;2024-01-30T07:21:23;5.70;99.90
22319;DHT22;11327;52.334;9.506;2024-01-30T07:24:46;5.70;99.90
22319;DHT22;11327;52.334;9.506;2024-01-30T07:28:08;5.60;99.90
22319;DHT22;11327;52.334;9.506;2024-01-30T07:31:31;7.70;99.90
22319;DHT22;11327;52.334;9.506;2024-01-30T07:34:51;5.50;99.90
22319;DHT22;11327;52.334;9.506;2024-01-30T07:38:12;5.50;99.90
22319;DHT22;11327;52.334;9.506;2024-01-30T07:41:32;5.40;99.90
22319;DHT22;11327;52.334;9.506;2024-01-30T07:44:53;5.40;99.90
22319;DHT22;11327;52.334;9.506;2024-01-30T07:48:14;5.40;99.90
22319;DHT22;11327;52.334;9.506;2024-01-30T07:51:34;5.40;99.90
22319;DHT22;11327;52.334;9.506;2024-01-30T07:54:55;5.30;99.90
22319;DHT22;11327;52.334;9.506;2024-01-30T07:58:15;5.40;99.90
22319;DHT22;11327;52.334;9.506;2024-01-30T08:01:36;5.40;99.90
22319;DHT22;11327;52.334;9.506;2024-01-30T08:04:57;5.40;99.90
22319;DHT22;11327;52.334;9.506;2024-01-30T08:08:17;5.50;99.90
22319;DHT22;11327;52.334;9.506;2024-01-30T08:11:38;5.50;99.90
22319;DHT22;11327;52.334;9.506;2024-01-30T08:14:58;5.60;99.90
22319;DHT22;11327;52.334;9.506;2024-01-30T08:18:19;5.60;99.90
22319;DHT22;11327;52.334;9.506;2024-01-30T08:21:39;5.70;99.90
22319;DHT22;11327;52.334;9.506;2024-01-30T08:25:00;5.80;99.90
22319;DHT22;11327;52.334;9.506;2024-01-30T08:28:21;5.80;99.90
22319;DHT22;11327;52.334;9.506;2024-01-30T08:31:41;5.80;99.90
22319;DHT22;11327;52.334;9.506;2024-01-30T08:35:02;5.90;99.90
22319;DHT22;11327;52.334;9.506;2024-01-30T08:38:26;5.90;99.90
22319;DHT22;11327;52.334;9.506;2024-01-30T08:41:47;6.00;99.90
22319;DHT22;11327;52.334;9.506;2024-01-30T08:45:08;6.00;99.90
22319;DHT22;11327;52.334;9.506;2024-01-30T08:48:29;6.10;99.90
22319;DHT22;11327;52.334;9.506;2024-01-30T08:51:50;6.10;99.90
22319;DHT22;11327;52.334;9.506;2024-01-30T08:55:10;6.10;99.90
22319;DHT22;11327;52.334;9.506;2024-01-30T08:58:31;6.20;99.90
22319;DHT22;11327;52.334;9.506;2024-01-30T09:01:52;6.20;99.90
22319;DHT22;11327;52.334;9.506;2024-01-30T09:05:14;6.30;99.90
22319;DHT22;11327;52.334;9.506;2024-01-30T09:08:35;6.30;99.90
22319;DHT22;11327;52.334;9.506;2024-01-30T09:11:55;6.30;99.90
22319;DHT22;11327;52.334;9.506;2024-01-30T09:15:16;6.30;99.90
22319;DHT22;11327;52.334;9.506;2024-01-30T09:18:36;6.80;99.90
22319;DHT22;11327;52.334;9.506;2024-01-30T09:21:57;6.40;99.90
22319;DHT22;11327;52.334;9.506;2024-01-30T09:25:18;6.50;99.90
22319;DHT22;11327;52.334;9.506;2024-01-30T09:28:39;6.50;99.90
22319;DHT22;11327;52.334;9.506;2024-01-30T09:31:59;6.60;99.90
22319;DHT22;11327;52.334;9.506;2024-01-30T09:35:22;6.70;99.90
22319;DHT22;11327;52.334;9.506;2024-01-30T09:38:43;6.80;99.90
22319;DHT22;11327;52.334;9.506;2024-01-30T09:45:32;6.90;99.90
22319;DHT22;11327;52.334;9.506;2024-01-30T09:48:53;7.00;99.90
22319;DHT22;11327;52.334;9.506;2024-01-30T09:52:15;7.00;99.90
22319;DHT22;11327;52.334;9.506;2024-01-30T09:55:36;7.00;99.90
22319;DHT22;11327;52.334;9.506;2024-01-30T09:58:57;7.20;99.90
22319;DHT22;11327;52.334;9.506;2024-01-30T10:02:17;7.40;99.90
22319;DHT22;11327;52.334;9.506;2024-01-30T10:05:39;10.00;99.90
22319;DHT22;11327;52.334;9.506;2024-01-30T10:09:00;7.90;99.90
22319;DHT22;11327;52.334;9.506;2024-01-30T10:12:21;8.10;99.90
22319;DHT22;11327;52.334;9.506;2024-01-30T10:15:41;8.30;99.90
22319;DHT22;11327;52.334;9.506;2024-01-30T10:19:02;8.60;99.90
22319;DHT22;11327;52.334;9.506;2024-01-30T10:22:23;9.00;99.90
22319;DHT22;11327;52.334;9.506;2024-01-30T10:25:43;9.00;99.90
22319;DHT22;11327;52.334;9.506;2024-01-30T10:29:04;9.00;99.90
22319;DHT22;11327;52.334;9.506;2024-01-30T10:32:25;9.10;99.90
22319;DHT22;11327;52.334;9.506;2024-01-30T10:35:46;9.10;99.90
22319;DHT22;11327;52.334;9.506;2024-01-30T10:39:07;8.30;99.90
22319;DHT22;11327;52.334;9.506;2024-01-30T10:42:27;11.10;99.90
22319;DHT22;11327;52.334;9.506;2024-01-30T10:45:50;9.30;99.90
22319;DHT22;11327;52.334;9.506;2024-01-30T10:49:12;9.30;99.90
22319;DHT22;11327;52.334;9.506;2024-01-30T10:52:34;9.20;99.90
22319;DHT22;11327;52.334;9.506;2024-01-30T10:55:55;9.20;99.90
22319;DHT22;11327;52.334;9.506;2024-01-30T10:59:17;9.20;99.90
22319;DHT22;11327;52.334;9.506;2024-01-30T11:02:39;9.40;99.90
22319;DHT22;11327;52.334;9.506;2024-01-30T11:06:00;9.40;99.90
22319;DHT22;11327;52.334;9.506;2024-01-30T11:09:22;9.40;99.90
22319;DHT22;11327;52.334;9.506;2024-01-30T11:12:42;9.50;99.90
22319;DHT22;11327;52.334;9.506;2024-01-30T11:16:04;9.60;99.90
22319;DHT22;11327;52.334;9.506;2024-01-30T11:19:26;9.80;99.90
22319;DHT22;11327;52.334;9.506;2024-01-30T11:22:47;9.90;99.90
22319;DHT22;11327;52.334;9.506;2024-01-30T11:26:10;9.90;99.90
22319;DHT22;11327;52.334;9.506;2024-01-30T11:29:30;9.90;99.90
22319;DHT22;11327;52.334;9.506;2024-01-30T11:33:00;9.80;99.90
22319;DHT22;11327;52.334;9.506;2024-01-30T11:36:20;10.00;99.90
22319;DHT22;11327;52.334;9.506;2024-01-30T11:39:42;10.10;99.90
22319;DHT22;11327;52.334;9.506;2024-01-30T11:43:03;10.30;99.90
22319;DHT22;11327;52.334;9.506;2024-01-30T11:46:25;10.60;99.90
22319;DHT22;11327;52.334;9.506;2024-01-30T11:49:45;10.90;99.90
22319;DHT22;11327;52.334;9.506;2024-01-30T11:53:06;11.00;99.90
22319;DHT22;11327;52.334;9.506;2024-01-30T11:56:28;11.10;99.90
22319;DHT22;11327;52.334;9.506;2024-01-30T11:59:49;11.20;99.90
22319;DHT22;11327;52.334;9.506;2024-01-30T12:03:10;11.80;99.90
22319;DHT22;11327;52.334;9.506;2024-01-30T12:06:31;13.40;99.90
22319;DHT22;11327;52.334;9.506;2024-01-30T12:09:52;11.60;99.90
22319;DHT22;11327;52.334;9.506;2024-01-30T12:13:14;11.60;99.90
22319;DHT22;11327;52.334;9.506;2024-01-30T12:16:34;11.80;99.90
22319;DHT22;11327;52.334;9.506;2024-01-30T12:23:30;12.00;99.90
22319;DHT22;11327;52.334;9.506;2024-01-30T12:26:51;12.00;99.90
22319;DHT22;11327;52.334;9.506;2024-01-30T12:30:12;12.10;99.90
22319;DHT22;11327;52.334;9.506;2024-01-30T12:33:35;12.20;99.90
22319;DHT22;11327;52.334;9.506;2024-01-30T12:36:56;13.10;99.90
22319;DHT22;11327;52.334;9.506;2024-01-30T12:40:17;12.20;99.90
22319;DHT22;11327;52.334;9.506;2024-01-30T12:43:37;12.10;99.90
22319;DHT22;11327;52.334;9.506;2024-01-30T12:46:58;12.10;99.90
22319;DHT22;11327;52.334;9.506;2024-01-30T12:50:18;12.10;99.90
22319;DHT22;11327;52.334;9.506;2024-01-30T12:53:39;12.00;99.90
22319;DHT22;11327;52.334;9.506;2024-01-30T12:57:00;11.90;99.90
22319;DHT22;11327;52.334;9.506;2024-01-30T13:00:21;12.20;99.90
22319;DHT22;11327;52.334;9.506;2024-01-30T13:03:41;11.80;99.90
22319;DHT22;11327;52.334;9.506;2024-01-30T13:07:02;11.80;99.90
22319;DHT22;11327;52.334;9.506;2024-01-30T13:10:23;11.80;99.90
22319;DHT22;11327;52.334;9.506;2024-01-30T13:13:44;11.80;99.90
22319;DHT22;11327;52.334;9.506;2024-01-30T13:17:04;11.80;99.90
22319;DHT22;11327;52.334;9.506;2024-01-30T13:20:25;11.90;99.90
22319;DHT22;11327;52.334;9.506;2024-01-30T13:23:45;11.90;99.90
22319;DHT22;11327;52.334;9.506;2024-01-30T13:27:06;11.80;99.90
22319;DHT22;11327;52.334;9.506;2024-01-30T13:30:27;11.70;99.90
22319;DHT22;11327;52.334;9.506;2024-01-30T13:33:47;11.70;99.90
22319;DHT22;11327;52.334;9.506;2024-01-30T13:37:09;11.70;99.90
22319;DHT22;11327;52.334;9.506;2024-01-30T13:40:30;11.60;99.90
22319;DHT22;11327;52.334;9.506;2024-01-30T13:43:50;11.50;99.90
22319;DHT22;11327;52.334;9.506;2024-01-30T13:47:11;11.50;99.90
22319;DHT22;11327;52.334;9.506;2024-01-30T13:50:31;11.50;99.90
22319;DHT22;11327;52.334;9.506;2024-01-30T13:53:53;11.30;99.90
22319;DHT22;11327;52.334;9.506;2024-01-30T13:57:14;11.30;99.90
22319;DHT22;11327;52.334;9.506;2024-01-30T14:00:34;11.20;99.90
22319;DHT22;11327;52.334;9.506;2024-01-30T14:03:55;11.10;99.90
22319;DHT22;11327;52.334;9.506;2024-01-30T14:07:15;11.20;99.90
22319;DHT22;11327;52.334;9.506;2024-01-30T14:10:38;11.10;99.90
22319;DHT22;11327;52.334;9.506;2024-01-30T14:17:39;10.50;99.90
22319;DHT22;11327;52.334;9.506;2024-01-30T14:21:00;11.00;99.90
22319;DHT22;11327;52.334;9.506;2024-01-30T14:24:20;11.00;99.90
22319;DHT22;11327;52.334;9.506;2024-01-30T14:27:42;11.00;99.90
22319;DHT22;11327;52.334;9.506;2024-01-30T14:31:02;11.00;99.90
22319;DHT22;11327;52.334;9.506;2024-01-30T14:34:23;11.00;99.90
22319;DHT22;11327;52.334;9.506;2024-01-30T14:37:44;10.90;99.90
22319;DHT22;11327;52.334;9.506;2024-01-30T14:41:05;10.80;99.90
22319;DHT22;11327;52.334;9.506;2024-01-30T14:44:26;11.00;99.90
22319;DHT22;11327;52.334;9.506;2024-01-30T14:47:46;11.00;99.90
22319;DHT22;11327;52.334;9.506;2024-01-30T14:51:07;10.90;99.90
22319;DHT22;11327;52.334;9.506;2024-01-30T14:54:27;10.90;99.90
22319;DHT22;11327;52.334;9.506;2024-01-30T14:57:48;8.40;99.90
22319;DHT22;11327;52.334;9.506;2024-01-30T15:01:09;10.80;99.90
22319;DHT22;11327;52.334;9.506;2024-01-30T15:04:30;10.70;99.90
22319;DHT22;11327;52.334;9.506;2024-01-30T15:07:50;10.70;99.90
22319;DHT22;11327;52.334;9.506;2024-01-30T15:11:11;10.70;99.90
22319;DHT22;11327;52.334;9.506;2024-01-30T15:14:31;10.60;99.90
22319;DHT22;11327;52.334;9.506;2024-01-30T15:17:52;10.50;99.90
22319;DHT22;11327;52.334;9.506;2024-01-30T15:21:13;10.50;99.90
22319;DHT22;11327;52.334;9.506;2024-01-30T15:24:33;10.40;99.90
22319;DHT22;11327;52.334;9.506;2024-01-30T15:27:54;10.40;99.90
22319;DHT22;11327;52.334;9.506;2024-01-30T15:31:14;10.30;99.90
22319;DHT22;11327;52.334;9.506;2024-01-30T15:34:35;10.20;99.90
22319;DHT22;11327;52.334;9.506;2024-01-30T15:37:55;10.10;99.90
22319;DHT22;11327;52.334;9.506;2024-01-30T15:41:16;10.10;99.90
22319;DHT22;11327;52.334;9.506;2024-01-30T15:44:36;10.10;99.90
22319;DHT22;11327;52.334;9.506;2024-01-30T15:47:57;10.00;99.90
22319;DHT22;11327;52.334;9.506;2024-01-30T15:51:18;10.00;99.90
22319;DHT22;11327;52.334;9.506;2024-01-30T15:54:39;10.20;99.90
22319;DHT22;11327;52.334;9.506;2024-01-30T15:58:00;10.50;99.90
22319;DHT22;11327;52.334;9.506;2024-01-30T16:01:21;10.70;99.90
22319;DHT22;11327;52.334;9.506;2024-01-30T16:04:41;10.80;99.90
22319;DHT22;11327;52.334;9.506;2024-01-30T16:08:02;10.90;99.90
22319;DHT22;11327;52.334;9.506;2024-01-30T16:11:22;11.00;99.90
22319;DHT22;11327;52.334;9.506;2024-01-30T16:14:43;11.10;99.90
22319;DHT22;11327;52.334;9.506;2024-01-30T16:18:04;11.10;99.90
22319;DHT22;11327;52.334;9.506;2024-01-30T16:21:24;11.30;99.90
22319;DHT22;11327;52.334;9.506;2024-01-30T16:24:45;11.40;99.90
22319;DHT22;11327;52.334;9.506;2024-01-30T16:28:07;11.40;99.90
22319;DHT22;11327;52.334;9.506;2024-01-30T16:31:27;11.40;99.90
22319;DHT22;11327;52.334;9.506;2024-01-30T16:34:48;11.40;99.90
22319;DHT22;11327;52.334;9.506;2024-01-30T16:38:08;11.30;99.90
22319;DHT22;11327;52.334;9.506;2024-01-30T16:41:29;11.30;99.90
22319;DHT22;11327;52.334;9.506;2024-01-30T16:44:50;11.30;99.90
22319;DHT22;11327;52.334;9.506;2024-01-30T16:48:10;11.30;99.90
22319;DHT22;11327;52.334;9.506;2024-01-30T16:51:33;11.30;99.90
22319;DHT22;11327;52.334;9.506;2024-01-30T16:54:53;11.40;99.90
22319;DHT22;11327;52.334;9.506;2024-01-30T16:58:14;11.30;99.90
22319;DHT22;11327;52.334;9.506;2024-01-30T17:01:35;11.30;99.90
22319;DHT22;11327;52.334;9.506;2024-01-30T17:04:55;11.30;99.90
22319;DHT22;11327;52.334;9.506;2024-01-30T17:08:18;11.30;99.90
22319;DHT22;11327;52.334;9.506;2024-01-30T17:11:38;11.30;99.90
22319;DHT22;11327;52.334;9.506;2024-01-30T17:14:59;11.30;99.90
22319;DHT22;11327;52.334;9.506;2024-01-30T17:18:20;11.30;99.90
22319;DHT22;11327;52.334;9.506;2024-01-30T17:21:41;11.20;99.90
22319;DHT22;11327;52.334;9.506;2024-01-30T17:25:01;11.20;99.90
22319;DHT22;11327;52.334;9.506;2024-01-30T17:28:22;11.20;99.90
22319;DHT22;11327;52.334;9.506;2024-01-30T17:31:43;11.20;99.90
22319;DHT22;11327;52.334;9.506;2024-01-30T17:35:05;11.20;99.90
22319;DHT22;11327;52.334;9.506;2024-01-30T17:38:25;11.20;99.90
22319;DHT22;11327;52.334;9.506;2024-01-30T17:41:46;11.20;99.90
22319;DHT22;11327;52.334;9.506;2024-01-30T17:45:07;11.10;99.90
22319;DHT22;11327;52.334;9.506;2024-01-30T17:48:28;11.10;99.90
22319;DHT22;11327;52.334;9.506;2024-01-30T17:51:48;11.00;99.90
22319;DHT22;11327;52.334;9.506;2024-01-30T17:55:09;11.00;99.90
22319;DHT22;11327;52.334;9.506;2024-01-30T17:58:30;10.90;99.90
22319;DHT22;11327;52.334;9.506;2024-01-30T18:01:50;10.90;99.90
22319;DHT22;11327;52.334;9.506;2024-01-30T18:05:11;11.00;99.90
22319;DHT22;11327;52.334;9.506;2024-01-30T18:08:32;11.00;99.90
22319;DHT22;11327;52.334;9.506;2024-01-30T18:11:53;11.10;99.90
22319;DHT22;11327;52.334;9.506;2024-01-30T18:15:13;11.20;99.90
22319;DHT22;11327;52.334;9.506;2024-01-30T18:18:34;11.10;99.90
22319;DHT22;11327;52.334;9.506;2024-01-30T18:21:55;11.10;99.90
22319;DHT22;11327;52.334;9.506;2024-01-30T18:25:15;11.10;99.90
22319;DHT22;11327;52.334;9.506;2024-01-30T18:28:36;11.10;99.90
22319;DHT22;11327;52.334;9.506;2024-01-30T18:31:57;11.00;99.90
22319;DHT22;11327;52.334;9.506;2024-01-30T18:35:17;10.90;99.90
22319;DHT22;11327;52.334;9.506;2024-01-30T18:38:38;10.80;99.90
22319;DHT22;11327;52.334;9.506;2024-01-30T18:41:58;10.70;99.90
22319;DHT22;11327;52.334;9.506;2024-01-30T18:45:19;10.70;99.90
22319;DHT22;11327;52.334;9.506;2024-01-30T18:48:40;10.60;99.90
22319;DHT22;11327;52.334;9.506;2024-01-30T18:52:01;10.60;99.90
22319;DHT22;11327;52.334;9.506;2024-01-30T18:55:23;10.40;99.90
22319;DHT22;11327;52.334;9.506;2024-01-30T18:58:44;10.40;99.90
22319;DHT22;11327;52.334;9.506;2024-01-30T19:02:05;10.20;99.90
22319;DHT22;11327;52.334;9.506;2024-01-30T19:05:26;10.20;99.90
22319;DHT22;11327;52.334;9.506;2024-01-30T19:08:46;10.00;99.90
22319;DHT22;11327;52.334;9.506;2024-01-30T19:12:07;9.90;99.90
22319;DHT22;11327;52.334;9.506;2024-01-30T19:15:27;9.80;99.90
22319;DHT22;11327;52.334;9.506;2024-01-30T19:18:48;9.80;99.90
22319;DHT22;11327;52.334;9.506;2024-01-30T19:22:09;9.80;99.90
22319;DHT22;11327;52.334;9.506;2024-01-30T19:25:30;9.80;99.90
22319;DHT22;11327;52.334;9.506;2024-01-30T19:28:50;9.60;99.90
22319;DHT22;11327;52.334;9.506;2024-01-30T19:32:11;9.70;99.90
22319;DHT22;11327;52.334;9.506;2024-01-30T19:35:32;9.60;99.90
22319;DHT22;11327;52.334;9.506;2024-01-30T19:38:52;9.60;99.90
22319;DHT22;11327;52.334;9.506;2024-01-30T19:42:13;9.60;99.90
22319;DHT22;11327;52.334;9.506;2024-01-30T19:45:33;9.50;99.90
22319;DHT22;11327;52.334;9.506;2024-01-30T19:48:54;9.60;99.90
22319;DHT22;11327;52.334;9.506;2024-01-30T19:52:15;9.50;99.90
22319;DHT22;11327;52.334;9.506;2024-01-30T19:55:35;9.50;99.90
22319;DHT22;11327;52.334;9.506;2024-01-30T19:58:56;9.50;99.90
22319;DHT22;11327;52.334;9.506;2024-01-30T20:02:16;9.40;99.90
22319;DHT22;11327;52.334;9.506;2024-01-30T20:05:39;9.40;99.90
22319;DHT22;11327;52.334;9.506;2024-01-30T20:08:59;10.40;99.90
22319;DHT22;11327;52.334;9.506;2024-01-30T20:12:20;9.30;99.90
22319;DHT22;11327;52.334;9.506;2024-01-30T20:15:41;9.30;99.90
22319;DHT22;11327;52.334;9.506;2024-01-30T20:19:01;9.20;99.90
22319;DHT22;11327;52.334;9.506;2024-01-30T20:22:22;9.20;99.90
22319;DHT22;11327;52.334;9.506;2024-01-30T20:25:43;9.20;99.90
22319;DHT22;11327;52.334;9.506;2024-01-30T20:29:03;9.20;99.90
22319;DHT22;11327;52.334;9.506;2024-01-30T20:32:24;9.20;99.90
22319;DHT22;11327;52.334;9.506;2024-01-30T20:35:45;9.20;99.90
22319;DHT22;11327;52.334;9.506;2024-01-30T20:39:06;9.20;99.90
22319;DHT22;11327;52.334;9.506;2024-01-30T20:42:27;9.20;99.90
22319;DHT22;11327;52.334;9.506;2024-01-30T20:45:48;9.20;99.90
22319;DHT22;11327;52.334;9.506;2024-01-30T20:49:09;9.20;99.90
22319;DHT22;11327;52.334;9.506;2024-01-30T20:52:29;9.20;99.90
22319;DHT22;11327;52.334;9.506;2024-01-30T20:55:50;9.20;99.90
22319;DHT22;11327;52.334;9.506;2024-01-30T20:59:11;9.20;99.90
22319;DHT22;11327;52.334;9.506;2024-01-30T21:02:31;9.20;99.90
22319;DHT22;11327;52.334;9.506;2024-01-30T21:05:52;9.20;99.90
22319;DHT22;11327;52.334;9.506;2024-01-30T21:09:12;9.20;99.90
22319;DHT22;11327;52.334;9.506;2024-01-30T21:12:33;9.20;99.90
22319;DHT22;11327;52.334;9.506;2024-01-30T21:15:54;9.20;99.90
22319;DHT22;11327;52.334;9.506;2024-01-30T21:19:14;9.10;99.90
22319;DHT22;11327;52.334;9.506;2024-01-30T21:22:35;9.10;99.90
22319;DHT22;11327;52.334;9.506;2024-01-30T21:25:56;9.10;99.90
22319;DHT22;11327;52.334;9.506;2024-01-30T21:29:18;9.20;99.90
22319;DHT22;11327;52.334;9.506;2024-01-30T21:32:39;9.10;99.90